Time;durP1;ratioP1;P1;durP2;ratioP2;P2;SDS_P1;SDS_P2;PMS_P1;PMS_P2;Temp;Humidity;BMP_temperature;BMP_pressure;BME280_temperature;BME280_humidity;BME280_pressure;Samples;Min_cycle;Max_cycle;Signal;HPM_P1;HPM_P2
2021/08/19 00:00:39;;;;;;;3.77;2.03;;;20.40;1.00;;;;;;5092444;28;20476;-79
2021/08/19 00:03:08;;;;;;;0.93;0.90;;;20.50;1.00;;;;;;5093528;28;20548;-80
2021/08/19 00:05:37;;;;;;;0.80;0.80;;;20.50;1.00;;;;;;5091118;28;20450;-81
2021/08/19 00:08:05;;;;;;;1.00;0.90;;;20.50;1.00;;;;;;5092943;28;20503;-80
2021/08/19 00:10:33;;;;;;;0.97;0.87;;;20.50;1.00;;;;;;5073338;28;20844;-79
2021/08/19 00:13:02;;;;;;;1.03;0.97;;;20.60;1.00;;;;;;5094311;28;20530;-80
2021/08/19 00:15:31;;;;;;;1.10;1.00;;;20.50;99.90;;;;;;5101590;28;20465;-80
2021/08/19 00:17:59;;;;;;;0.90;0.90;;;20.60;1.00;;;;;;5092590;28;20444;-81
2021/08/19 00:20:30;;;;;;;1.60;0.73;;;20.50;1.00;;;;;;5091338;28;20468;-80
2021/08/19 00:22:59;;;;;;;0.80;0.80;;;20.60;99.90;;;;;;5093061;28;20526;-80
2021/08/19 00:25:27;;;;;;;1.10;1.00;;;20.60;99.90;;;;;;5091424;28;21220;-80
2021/08/19 00:27:55;;;;;;;1.63;1.53;;;20.60;99.90;;;;;;5074045;28;20446;-80
2021/08/19 00:30:23;;;;;;;0.90;0.90;;;20.50;99.90;;;;;;5090922;28;20523;-79
2021/08/19 00:32:51;;;;;;;1.00;0.80;;;20.50;99.90;;;;;;5092712;28;20473;-80
2021/08/19 00:35:20;;;;;;;0.80;0.80;;;20.50;1.00;;;;;;5091142;28;20665;-80
2021/08/19 00:37:50;;;;;;;0.90;0.90;;;20.50;1.00;;;;;;5074408;28;20449;-80
2021/08/19 00:40:18;;;;;;;2.03;1.07;;;20.50;1.00;;;;;;5091085;28;20418;-80
2021/08/19 00:42:49;;;;;;;0.90;0.90;;;20.50;1.00;;;;;;5092011;28;21043;-80
2021/08/19 00:45:21;;;;;;;0.83;0.83;;;20.50;1.00;;;;;;5091336;28;20533;-80
2021/08/19 00:47:49;;;;;;;0.73;0.70;;;20.50;1.00;;;;;;5092534;28;20473;-80
2021/08/19 00:50:17;;;;;;;0.80;0.67;;;20.50;1.00;;;;;;5075944;28;20473;-80
2021/08/19 00:52:46;;;;;;;1.00;1.00;;;20.50;1.00;;;;;;5071515;28;21014;-80
2021/08/19 00:55:18;;;;;;;1.40;0.80;;;20.50;1.00;;;;;;5052552;28;20559;-80
2021/08/19 00:57:46;;;;;;;1.10;0.90;;;20.40;1.00;;;;;;5080627;28;20813;-80
2021/08/19 01:00:15;;;;;;;1.23;0.87;;;20.30;1.00;;;;;;5090555;28;20437;-80
2021/08/19 01:02:46;;;;;;;2.30;1.03;;;20.20;1.00;;;;;;5089860;28;20473;-80
2021/08/19 01:05:16;;;;;;;0.73;0.73;;;20.20;1.00;;;;;;5090156;28;20544;-80
2021/08/19 01:07:46;;;;;;;0.83;0.83;;;20.20;1.00;;;;;;5091252;28;20896;-81
2021/08/19 01:10:16;;;;;;;0.93;0.90;;;20.30;1.00;;;;;;5072510;28;21064;-80
2021/08/19 01:12:46;;;;;;;1.37;0.87;;;20.30;1.00;;;;;;5089857;28;20466;-80
2021/08/19 01:15:15;;;;;;;0.90;0.90;;;20.30;1.00;;;;;;5072023;28;20461;-80
2021/08/19 01:17:43;;;;;;;0.87;0.87;;;20.10;1.00;;;;;;5090642;28;20483;-80
2021/08/19 01:20:11;;;;;;;1.40;0.80;;;20.10;1.00;;;;;;5090983;28;20483;-79
2021/08/19 01:22:40;;;;;;;1.10;1.00;;;20.20;1.00;;;;;;5090412;28;20457;-80
2021/08/19 01:25:11;;;;;;;1.00;0.80;;;20.20;1.00;;;;;;5091271;28;20468;-81
2021/08/19 01:27:41;;;;;;;0.87;0.87;;;20.30;1.00;;;;;;5090421;28;20456;-80
2021/08/19 01:30:10;;;;;;;0.80;0.80;;;20.20;1.00;;;;;;5090564;28;20610;-80
2021/08/19 01:32:38;;;;;;;0.90;0.90;;;20.20;1.00;;;;;;5090004;28;20466;-80
2021/08/19 01:35:06;;;;;;;0.77;0.77;;;20.20;1.00;;;;;;5091323;28;21007;-80
2021/08/19 01:37:35;;;;;;;0.70;0.70;;;20.10;1.00;;;;;;5071705;28;20450;-80
2021/08/19 01:40:03;;;;;;;0.70;0.70;;;20.20;1.00;;;;;;5090640;28;20446;-80
2021/08/19 01:42:31;;;;;;;0.80;0.80;;;20.20;1.00;;;;;;5089662;28;20904;-81
2021/08/19 01:45:00;;;;;;;1.10;1.00;;;20.10;1.00;;;;;;5091256;28;20453;-80
2021/08/19 01:47:31;;;;;;;0.77;0.77;;;20.00;1.00;;;;;;5089798;28;20453;-80
2021/08/19 01:49:59;;;;;;;1.67;0.70;;;20.10;1.00;;;;;;5078542;28;20493;-81
2021/08/19 01:52:27;;;;;;;0.80;0.80;;;20.10;1.00;;;;;;5069241;28;20489;-80
2021/08/19 01:54:55;;;;;;;0.93;0.83;;;20.00;1.00;;;;;;5070773;28;20435;-80
2021/08/19 01:57:24;;;;;;;1.47;0.80;;;20.10;1.00;;;;;;5077543;28;20484;-80
2021/08/19 01:59:52;;;;;;;0.70;0.70;;;20.10;1.00;;;;;;5090675;28;20442;-81
2021/08/19 02:02:21;;;;;;;0.90;0.80;;;20.10;1.00;;;;;;5089753;28;20499;-81
2021/08/19 02:04:50;;;;;;;1.00;0.80;;;20.10;1.00;;;;;;5090504;28;20434;-81
2021/08/19 02:07:18;;;;;;;0.80;0.80;;;19.90;1.00;;;;;;5089142;28;20454;-80
2021/08/19 02:09:46;;;;;;;0.87;0.77;;;19.90;1.00;;;;;;5089440;28;20477;-80
2021/08/19 02:12:14;;;;;;;0.60;0.60;;;20.00;1.00;;;;;;5088022;28;20450;-80
2021/08/19 02:14:42;;;;;;;0.90;0.70;;;20.00;1.00;;;;;;5090192;28;20457;-80
2021/08/19 02:17:10;;;;;;;2.00;0.70;;;20.00;1.00;;;;;;5088874;28;20449;-81
2021/08/19 02:19:40;;;;;;;1.43;0.80;;;20.00;1.00;;;;;;5071617;28;20430;-80
2021/08/19 02:22:08;;;;;;;0.80;0.80;;;19.90;1.00;;;;;;5088922;28;20459;-81
2021/08/19 02:24:36;;;;;;;0.70;0.70;;;19.90;1.00;;;;;;5090117;28;20461;-80
2021/08/19 02:27:05;;;;;;;0.80;0.80;;;20.00;1.00;;;;;;5088961;28;20454;-80
2021/08/19 02:29:33;;;;;;;0.70;0.70;;;20.00;1.00;;;;;;5093678;28;20469;-80
2021/08/19 02:32:01;;;;;;;0.80;0.80;;;20.00;1.00;;;;;;5093673;28;20465;-80
2021/08/19 02:34:29;;;;;;;0.70;0.70;;;20.00;1.00;;;;;;5093995;28;20488;-80
2021/08/19 02:36:59;;;;;;;0.97;0.90;;;20.00;1.00;;;;;;5094217;28;20524;-80
2021/08/19 02:39:27;;;;;;;0.70;0.70;;;20.00;1.00;;;;;;5093839;28;20436;-80
2021/08/19 02:41:55;;;;;;;0.70;0.70;;;20.00;1.00;;;;;;5093704;28;20520;-81
2021/08/19 02:44:23;;;;;;;0.93;0.83;;;19.90;1.00;;;;;;5093992;28;20430;-79
2021/08/19 02:46:52;;;;;;;0.73;0.70;;;19.90;1.00;;;;;;5076156;28;20971;-80
2021/08/19 02:49:20;;;;;;;0.70;0.70;;;19.90;1.00;;;;;;5093090;28;20461;-80
2021/08/19 02:51:48;;;;;;;0.83;0.83;;;19.80;1.00;;;;;;5075574;28;20446;-80
2021/08/19 02:54:17;;;;;;;1.03;0.90;;;19.80;1.00;;;;;;5093337;28;21078;-80
2021/08/19 02:56:45;;;;;;;0.87;0.87;;;19.80;1.00;;;;;;5074964;28;20498;-80
2021/08/19 02:59:13;;;;;;;0.80;0.80;;;19.70;1.00;;;;;;5092629;28;20442;-80
2021/08/19 03:01:42;;;;;;;1.30;0.90;;;19.70;1.00;;;;;;5093352;28;20811;-80
2021/08/19 03:04:10;;;;;;;0.93;0.87;;;19.80;1.00;;;;;;5093068;28;20493;-80
2021/08/19 03:06:38;;;;;;;1.17;1.13;;;19.70;1.00;;;;;;5093022;28;20506;-81
2021/08/19 03:09:06;;;;;;;0.80;0.80;;;19.70;1.00;;;;;;5092499;28;20430;-80
2021/08/19 03:11:36;;;;;;;1.63;0.77;;;19.70;1.00;;;;;;5092357;28;20546;-80
2021/08/19 03:14:04;;;;;;;1.23;0.87;;;19.70;1.00;;;;;;5092682;28;20465;-80
2021/08/19 03:16:32;;;;;;;1.40;1.00;;;19.80;1.00;;;;;;5074907;28;20503;-80
2021/08/19 03:19:03;;;;;;;0.80;0.80;;;19.90;1.00;;;;;;5095443;28;21094;-80
2021/08/19 03:21:31;;;;;;;1.47;1.00;;;19.90;1.00;;;;;;5102281;28;20442;-80
2021/08/19 03:23:59;;;;;;;1.00;1.00;;;19.90;1.00;;;;;;5092457;28;20469;-80
2021/08/19 03:26:28;;;;;;;0.87;0.87;;;19.80;1.00;;;;;;5093017;28;20450;-80
2021/08/19 03:28:57;;;;;;;0.90;0.90;;;19.80;1.00;;;;;;5092629;28;20871;-80
2021/08/19 03:31:27;;;;;;;0.80;0.80;;;19.70;1.00;;;;;;5074544;28;20473;-80
2021/08/19 03:33:55;;;;;;;1.33;0.90;;;19.70;1.00;;;;;;5092074;28;20462;-80
2021/08/19 03:36:25;;;;;;;0.80;0.80;;;19.70;1.00;;;;;;5092484;28;20444;-80
2021/08/19 03:38:53;;;;;;;1.27;1.17;;;19.60;1.00;;;;;;5091325;28;20904;-79
2021/08/19 03:41:22;;;;;;;0.77;0.77;;;19.50;1.00;;;;;;5092490;28;20518;-79
2021/08/19 03:43:50;;;;;;;0.80;0.80;;;19.60;1.00;;;;;;5092069;28;20519;-80
2021/08/19 03:46:19;;;;;;;0.77;0.77;;;19.60;1.00;;;;;;5092780;28;20513;-80
2021/08/19 03:48:47;;;;;;;3.10;1.67;;;19.70;1.00;;;;;;5079334;28;20481;-78
2021/08/19 03:51:16;;;;;;;0.97;0.80;;;19.70;1.00;;;;;;5072044;28;21019;-80
2021/08/19 03:53:44;;;;;;;0.90;0.90;;;19.70;1.00;;;;;;5071172;28;20462;-80
2021/08/19 03:56:12;;;;;;;1.60;0.90;;;19.70;1.00;;;;;;5078882;28;20442;-80
2021/08/19 03:58:40;;;;;;;1.00;0.90;;;19.70;1.00;;;;;;5092380;28;20445;-80
2021/08/19 04:01:09;;;;;;;0.93;0.83;;;19.60;1.00;;;;;;5092524;28;20434;-80
2021/08/19 04:03:38;;;;;;;0.90;0.90;;;19.60;1.00;;;;;;5091588;28;20458;-80
2021/08/19 04:06:07;;;;;;;1.73;0.97;;;19.60;1.00;;;;;;5092725;28;20441;-78
2021/08/19 04:08:35;;;;;;;0.90;0.80;;;19.60;1.00;;;;;;5073443;28;20454;-80
2021/08/19 04:11:03;;;;;;;1.10;1.00;;;19.60;1.00;;;;;;5073366;28;20500;-80
2021/08/19 04:13:31;;;;;;;1.07;1.00;;;19.60;1.00;;;;;;5089976;28;20473;-80
2021/08/19 04:15:59;;;;;;;3.77;0.90;;;19.60;1.00;;;;;;5092617;28;20454;-80
2021/08/19 04:18:27;;;;;;;1.27;0.90;;;19.60;1.00;;;;;;5091495;28;20436;-80
2021/08/19 04:20:57;;;;;;;0.80;0.80;;;19.60;1.00;;;;;;5092247;28;20446;-80
2021/08/19 04:23:25;;;;;;;1.30;0.70;;;19.60;1.00;;;;;;5091008;28;20465;-80
2021/08/19 04:25:53;;;;;;;0.90;0.90;;;19.60;1.00;;;;;;5091879;28;20514;-80
2021/08/19 04:28:22;;;;;;;0.87;0.87;;;19.60;1.00;;;;;;5090745;28;20507;-80
2021/08/19 04:30:50;;;;;;;0.70;0.70;;;19.70;1.00;;;;;;5091603;28;20470;-81
2021/08/19 04:33:19;;;;;;;7.73;0.87;;;19.50;1.00;;;;;;5091046;28;20460;-80
2021/08/19 04:35:47;;;;;;;1.20;0.80;;;19.50;1.00;;;;;;5092084;28;20444;-80
2021/08/19 04:38:16;;;;;;;0.90;0.80;;;19.50;1.00;;;;;;5090464;28;20438;-81
2021/08/19 04:40:45;;;;;;;2.20;0.97;;;19.60;1.00;;;;;;5073178;28;20499;-80
2021/08/19 04:43:13;;;;;;;0.87;0.87;;;19.70;1.00;;;;;;5090790;28;20458;-80
2021/08/19 04:45:41;;;;;;;1.23;0.73;;;19.70;1.00;;;;;;5091279;28;20449;-80
2021/08/19 04:48:09;;;;;;;0.80;0.80;;;19.70;1.00;;;;;;5090780;28;20446;-80
2021/08/19 04:50:37;;;;;;;1.23;1.00;;;19.70;1.00;;;;;;5091242;28;20462;-80
2021/08/19 04:53:06;;;;;;;0.77;0.70;;;19.70;1.00;;;;;;5072916;28;20473;-80
2021/08/19 04:55:35;;;;;;;1.03;0.80;;;19.80;1.00;;;;;;5091401;28;20457;-80
2021/08/19 04:58:03;;;;;;;0.80;0.80;;;19.80;1.00;;;;;;5091123;28;20437;-80
2021/08/19 05:00:32;;;;;;;1.30;1.20;;;19.80;1.00;;;;;;5090811;28;21024;-80
2021/08/19 05:03:00;;;;;;;0.63;0.60;;;19.90;1.00;;;;;;5091054;28;21135;-80
2021/08/19 05:05:28;;;;;;;0.80;0.80;;;19.90;1.00;;;;;;5091042;28;20541;-80
2021/08/19 05:07:56;;;;;;;1.23;0.80;;;19.80;1.00;;;;;;5091235;28;20458;-80
2021/08/19 05:10:25;;;;;;;0.80;0.80;;;19.80;1.00;;;;;;5090447;28;20475;-80
2021/08/19 05:12:54;;;;;;;0.73;0.73;;;19.70;1.00;;;;;;5089678;28;20533;-80
2021/08/19 05:15:23;;;;;;;0.77;0.77;;;19.70;1.00;;;;;;5090450;28;20438;-79
2021/08/19 05:17:51;;;;;;;1.33;1.00;;;19.50;1.00;;;;;;5090335;28;20442;-81
2021/08/19 05:20:19;;;;;;;1.00;0.87;;;19.40;1.00;;;;;;5090071;28;20514;-80
2021/08/19 05:22:47;;;;;;;1.90;0.77;;;19.30;1.00;;;;;;5090691;28;20474;-80
2021/08/19 05:25:16;;;;;;;1.10;1.00;;;19.30;1.00;;;;;;5090140;28;20462;-80
2021/08/19 05:27:44;;;;;;;0.70;0.70;;;19.30;1.00;;;;;;5090572;28;20516;-80
2021/08/19 05:30:14;;;;;;;0.83;0.80;;;19.10;33.70;;;;;;5089258;28;20905;-80
2021/08/19 05:32:42;;;;;;;1.03;1.00;;;19.10;99.90;;;;;;5090607;28;20466;-80
2021/08/19 05:35:11;;;;;;;0.70;0.70;;;19.20;93.40;;;;;;5089722;28;20450;-80
2021/08/19 05:37:39;;;;;;;0.80;0.80;;;19.10;99.90;;;;;;5090398;28;20532;-80
2021/08/19 05:40:08;;;;;;;1.27;0.90;;;19.10;99.90;;;;;;5089200;28;20507;-80
2021/08/19 05:42:37;;;;;;;1.83;1.00;;;18.90;99.90;;;;;;5090102;28;20884;-80
2021/08/19 05:45:06;;;;;;;0.80;0.80;;;18.80;99.90;;;;;;5089528;28;20450;-80
2021/08/19 05:47:35;;;;;;;0.80;0.80;;;18.90;99.90;;;;;;5090282;28;20981;-80
2021/08/19 05:50:10;;;;;;;0.97;0.93;;;18.90;99.90;;;;;;5071152;28;20442;-80
2021/08/19 05:52:38;;;;;;;2.23;0.93;;;19.00;99.90;;;;;;5090857;28;20487;-80
2021/08/19 05:55:08;;;;;;;1.40;0.80;;;19.00;99.90;;;;;;5088926;28;20526;-80
2021/08/19 05:57:36;;;;;;;1.03;0.90;;;19.00;99.90;;;;;;5090576;28;20480;-80
2021/08/19 06:00:05;;;;;;;0.90;0.90;;;19.20;99.90;;;;;;5090012;28;20514;-80
2021/08/19 06:02:34;;;;;;;1.47;1.30;;;19.20;99.90;;;;;;5072522;28;20457;-80
2021/08/19 06:05:03;;;;;;;0.90;0.90;;;19.30;99.90;;;;;;5089445;28;20477;-80
2021/08/19 06:07:31;;;;;;;0.70;0.70;;;19.50;11.80;;;;;;5090468;28;20453;-80
2021/08/19 06:09:59;;;;;;;1.40;1.10;;;19.60;1.00;;;;;;5089272;28;20446;-80
2021/08/19 06:12:27;;;;;;;1.70;1.07;;;19.60;1.00;;;;;;5089638;28;20482;-80
2021/08/19 06:14:55;;;;;;;1.10;1.00;;;19.70;1.00;;;;;;5071537;28;20454;-80
2021/08/19 06:17:23;;;;;;;1.00;0.90;;;19.70;1.00;;;;;;5091415;28;20437;-79
2021/08/19 06:19:53;;;;;;;1.00;1.00;;;19.80;1.00;;;;;;5089272;28;20441;-81
2021/08/19 06:22:21;;;;;;;0.97;0.90;;;19.70;1.00;;;;;;5072768;28;20458;-80
2021/08/19 06:24:49;;;;;;;1.50;1.40;;;19.70;1.00;;;;;;5089616;28;20925;-80
2021/08/19 06:27:18;;;;;;;1.03;1.00;;;19.70;1.00;;;;;;5083423;28;20449;-81
2021/08/19 06:29:46;;;;;;;2.70;1.47;;;19.60;1.00;;;;;;5089212;28;20450;-80
2021/08/19 06:32:14;;;;;;;2.30;0.80;;;19.60;1.00;;;;;;5071859;28;20488;-80
2021/08/19 06:34:42;;;;;;;1.60;1.20;;;19.70;1.00;;;;;;5089800;28;20430;-80
2021/08/19 06:37:11;;;;;;;1.20;1.00;;;19.70;1.00;;;;;;5072212;28;20509;-80
2021/08/19 06:39:40;;;;;;;1.53;1.00;;;19.70;1.00;;;;;;5089482;28;20488;-80
2021/08/19 06:42:08;;;;;;;1.10;1.00;;;19.70;1.00;;;;;;5090467;28;20442;-80
2021/08/19 06:44:36;;;;;;;1.03;0.93;;;19.80;1.00;;;;;;5089862;28;20441;-80
2021/08/19 06:47:05;;;;;;;2.17;0.80;;;19.90;1.00;;;;;;5090558;28;20457;-80
2021/08/19 06:49:33;;;;;;;1.53;0.80;;;19.90;1.00;;;;;;5089498;28;20842;-81
2021/08/19 06:52:01;;;;;;;0.80;0.80;;;19.90;1.00;;;;;;5072037;28;20473;-80
2021/08/19 06:54:30;;;;;;;0.80;0.80;;;20.00;1.00;;;;;;5090076;28;20454;-80
2021/08/19 06:57:00;;;;;;;1.73;0.90;;;20.10;1.00;;;;;;5090466;28;20491;-81
2021/08/19 06:59:29;;;;;;;0.63;0.63;;;20.10;1.00;;;;;;5089579;28;20449;-80
2021/08/19 07:01:57;;;;;;;1.40;0.90;;;20.10;1.00;;;;;;5090257;28;20508;-81
2021/08/19 07:04:25;;;;;;;1.20;1.10;;;20.20;1.00;;;;;;5089995;28;20451;-81
2021/08/19 07:06:54;;;;;;;1.00;0.90;;;20.20;1.00;;;;;;5090012;28;20450;-80
2021/08/19 07:09:22;;;;;;;1.10;1.00;;;20.20;1.00;;;;;;5089303;28;20445;-80
2021/08/19 07:11:51;;;;;;;1.93;0.87;;;20.10;1.00;;;;;;5088862;28;20437;-80
2021/08/19 07:14:19;;;;;;;0.90;0.80;;;20.20;1.00;;;;;;5091273;28;20477;-80
2021/08/19 07:16:48;;;;;;;0.80;0.80;;;20.10;1.00;;;;;;5093366;28;20854;-80
2021/08/19 07:19:16;;;;;;;0.80;0.80;;;20.20;1.00;;;;;;5093232;28;20937;-80
2021/08/19 07:21:44;;;;;;;1.00;0.80;;;20.30;1.00;;;;;;5093147;28;20461;-80
2021/08/19 07:24:13;;;;;;;1.27;1.00;;;20.30;1.00;;;;;;5094496;28;20534;-80
2021/08/19 07:26:41;;;;;;;0.80;0.80;;;20.40;1.00;;;;;;5093311;28;20491;-80
2021/08/19 07:29:11;;;;;;;1.80;1.03;;;20.40;1.00;;;;;;5092903;28;20850;-80
2021/08/19 07:31:39;;;;;;;1.43;1.00;;;20.50;1.00;;;;;;5093395;28;20491;-80
2021/08/19 07:34:08;;;;;;;1.10;0.97;;;20.50;1.00;;;;;;5093642;28;20473;-80
2021/08/19 07:36:37;;;;;;;1.30;1.00;;;20.50;1.00;;;;;;5093056;28;20511;-81
2021/08/19 07:39:05;;;;;;;0.90;0.80;;;20.60;1.00;;;;;;5093788;28;20460;-79
2021/08/19 07:41:35;;;;;;;0.70;0.70;;;20.50;1.00;;;;;;5075177;28;20465;-80
2021/08/19 07:44:03;;;;;;;0.83;0.70;;;20.50;1.00;;;;;;5093759;28;20453;-81
2021/08/19 07:46:34;;;;;;;1.10;0.80;;;20.50;1.00;;;;;;5082678;28;20938;-80
2021/08/19 07:49:02;;;;;;;1.47;0.90;;;20.60;1.00;;;;;;5072852;28;20446;-80
2021/08/19 07:51:31;;;;;;;1.90;0.70;;;20.70;1.00;;;;;;5072341;28;20431;-80
2021/08/19 07:54:00;;;;;;;1.43;0.80;;;20.80;1.00;;;;;;5060816;28;20488;-81
2021/08/19 07:56:28;;;;;;;0.80;0.70;;;20.80;1.00;;;;;;5092727;28;20527;-81
2021/08/19 07:58:58;;;;;;;0.73;0.73;;;20.90;1.00;;;;;;5093179;28;21232;-80
2021/08/19 08:01:26;;;;;;;1.00;0.90;;;20.90;1.00;;;;;;5092347;28;20442;-80
2021/08/19 08:03:56;;;;;;;1.80;0.70;;;20.90;1.00;;;;;;5093506;28;20995;-81
2021/08/19 08:06:25;;;;;;;0.97;0.70;;;20.90;1.00;;;;;;5092562;28;20485;-80
2021/08/19 08:08:53;;;;;;;1.00;1.00;;;21.00;1.00;;;;;;5093597;28;20442;-80
2021/08/19 08:11:21;;;;;;;0.90;0.90;;;21.00;1.00;;;;;;5091024;28;20511;-80
2021/08/19 08:13:49;;;;;;;0.70;0.70;;;21.00;1.00;;;;;;5093372;28;20477;-80
2021/08/19 08:16:17;;;;;;;0.70;0.70;;;21.10;1.00;;;;;;5092739;28;20453;-81
2021/08/19 08:18:46;;;;;;;2.57;0.73;;;21.10;1.00;;;;;;5093969;28;20465;-80
2021/08/19 08:21:16;;;;;;;1.40;0.90;;;21.10;1.00;;;;;;5074353;28;20446;-80
2021/08/19 08:23:44;;;;;;;1.00;0.80;;;21.10;1.00;;;;;;5093340;28;20463;-80
2021/08/19 08:26:13;;;;;;;0.80;0.73;;;21.10;1.00;;;;;;5092174;28;20442;-80
2021/08/19 08:28:41;;;;;;;0.80;0.70;;;21.10;99.90;;;;;;5087682;28;20458;-80
2021/08/19 08:31:10;;;;;;;1.33;1.00;;;21.20;99.90;;;;;;5092995;28;20533;-80
2021/08/19 08:33:38;;;;;;;0.80;0.77;;;21.20;99.90;;;;;;5093207;28;20476;-81
2021/08/19 08:36:06;;;;;;;0.90;0.90;;;21.30;99.90;;;;;;5092661;28;20445;-81
2021/08/19 08:38:35;;;;;;;0.90;0.83;;;21.30;99.90;;;;;;5092762;28;20458;-80
2021/08/19 08:41:04;;;;;;;1.17;1.07;;;21.40;99.90;;;;;;5091956;28;20843;-80
2021/08/19 08:43:34;;;;;;;0.97;0.70;;;21.40;99.90;;;;;;5093130;28;20460;-81
2021/08/19 08:46:05;;;;;;;1.20;1.10;;;21.40;99.90;;;;;;5091472;28;20455;-80
2021/08/19 08:48:33;;;;;;;1.00;0.90;;;21.50;99.90;;;;;;5092986;28;20451;-81
2021/08/19 08:51:02;;;;;;;1.20;1.10;;;21.50;99.90;;;;;;5073937;28;20467;-81
2021/08/19 08:53:30;;;;;;;0.80;0.80;;;21.50;99.90;;;;;;5091978;28;20482;-80
2021/08/19 08:56:15;;;;;;;0.80;0.60;;;21.50;99.90;;;;;;5092206;28;20441;-81
2021/08/19 08:58:43;;;;;;;1.00;1.00;;;21.60;99.90;;;;;;5091936;28;20485;-81
2021/08/19 09:01:11;;;;;;;0.80;0.80;;;21.60;99.90;;;;;;5073506;28;20571;-81
2021/08/19 09:03:40;;;;;;;0.90;0.90;;;21.60;99.90;;;;;;5091851;28;20523;-81
2021/08/19 09:06:09;;;;;;;4.00;1.00;;;21.60;99.90;;;;;;5073591;28;20460;-81
2021/08/19 09:08:50;;;;;;;0.87;0.87;;;21.60;99.90;;;;;;5073437;28;20837;-81
2021/08/19 09:11:20;;;;;;;2.13;0.93;;;21.60;99.90;;;;;;5090506;28;20451;-80
2021/08/19 09:13:48;;;;;;;0.80;0.70;;;21.70;99.90;;;;;;5091519;28;20478;-81
2021/08/19 09:16:19;;;;;;;0.93;0.83;;;21.70;99.90;;;;;;5091939;28;20508;-80
2021/08/19 09:18:48;;;;;;;0.90;0.90;;;21.70;99.90;;;;;;5073028;28;20507;-80
2021/08/19 09:21:22;;;;;;;0.80;0.80;;;21.80;99.90;;;;;;5091467;28;20526;-80
2021/08/19 09:24:11;;;;;;;0.70;0.70;;;21.70;99.90;;;;;;5072777;28;20992;-80
2021/08/19 09:26:42;;;;;;;1.60;0.80;;;21.70;99.90;;;;;;5092596;28;20455;-81
2021/08/19 09:29:15;;;;;;;1.10;1.00;;;21.80;99.90;;;;;;5070846;28;20854;-81
2021/08/19 09:31:44;;;;;;;1.03;0.80;;;21.80;99.90;;;;;;5071840;28;20437;-81
2021/08/19 09:34:12;;;;;;;0.90;0.60;;;21.70;99.90;;;;;;5086018;28;20847;-80
2021/08/19 09:36:41;;;;;;;0.80;0.70;;;21.70;99.90;;;;;;5091551;28;20461;-81
2021/08/19 09:39:10;;;;;;;0.60;0.60;;;21.80;99.90;;;;;;5091049;28;20487;-81
2021/08/19 09:41:54;;;;;;;0.67;0.60;;;21.80;99.90;;;;;;5074386;28;20466;-80
2021/08/19 09:44:33;;;;;;;1.83;0.70;;;21.80;99.90;;;;;;5091564;28;20466;-81
2021/08/19 09:47:03;;;;;;;0.60;0.60;;;21.80;99.90;;;;;;5091246;28;20824;-80
2021/08/19 09:49:35;;;;;;;0.97;0.60;;;21.60;99.90;;;;;;5091781;28;20428;-81
2021/08/19 09:52:08;;;;;;;0.50;0.50;;;21.50;99.90;;;;;;5091414;28;20443;-81
2021/08/19 09:54:38;;;;;;;1.03;0.60;;;21.50;99.90;;;;;;5091701;28;20567;-80
2021/08/19 09:57:08;;;;;;;0.60;0.60;;;21.60;99.90;;;;;;5073319;28;20444;-80
2021/08/19 09:59:38;;;;;;;0.50;0.50;;;21.70;99.90;;;;;;5073523;28;20453;-80
2021/08/19 10:02:09;;;;;;;0.80;0.80;;;21.80;99.90;;;;;;5093124;28;20428;-80
2021/08/19 10:04:37;;;;;;;0.60;0.60;;;21.90;99.90;;;;;;5076093;28;20805;-80
2021/08/19 10:07:06;;;;;;;1.30;0.77;;;22.00;99.90;;;;;;5092684;28;20446;-80
2021/08/19 10:09:34;;;;;;;0.60;0.60;;;22.10;99.90;;;;;;5092061;28;20501;-80
2021/08/19 10:12:02;;;;;;;1.10;0.70;;;22.00;99.90;;;;;;5090205;28;20444;-80
2021/08/19 10:14:32;;;;;;;0.70;0.70;;;22.00;99.90;;;;;;5091360;28;20462;-81
2021/08/19 10:17:00;;;;;;;0.70;0.70;;;22.10;99.90;;;;;;5091333;28;21284;-81
2021/08/19 10:19:32;;;;;;;1.03;0.93;;;22.20;99.90;;;;;;5073552;28;20790;-81
2021/08/19 10:22:05;;;;;;;1.27;0.70;;;22.20;99.90;;;;;;5092613;28;20434;-81
2021/08/19 10:24:36;;;;;;;0.83;0.70;;;22.20;99.90;;;;;;5093597;28;20514;-80
2021/08/19 10:27:14;;;;;;;1.47;0.80;;;22.20;99.90;;;;;;5091511;28;20510;-81
2021/08/19 10:29:46;;;;;;;0.60;0.60;;;22.20;99.90;;;;;;5091801;28;20441;-80
2021/08/19 10:32:26;;;;;;;0.87;0.77;;;22.10;99.90;;;;;;5072347;28;20459;-80
2021/08/19 10:35:00;;;;;;;0.80;0.80;;;22.10;99.90;;;;;;5073885;28;20854;-81
2021/08/19 10:38:00;;;;;;;1.20;0.70;;;22.20;99.90;;;;;;5092048;28;20469;-81
2021/08/19 10:40:41;;;;;;;0.57;0.57;;;22.30;99.90;;;;;;5072778;28;20967;-81
2021/08/19 10:43:43;;;;;;;0.67;0.67;;;22.30;99.90;;;;;;5073131;28;20670;-80
2021/08/19 10:46:16;;;;;;;1.07;0.97;;;22.30;99.90;;;;;;5071196;28;20450;-80
2021/08/19 10:48:52;;;;;;;0.70;0.70;;;22.40;99.90;;;;;;5072507;28;20446;-81
2021/08/19 10:51:21;;;;;;;0.90;0.80;;;22.50;99.90;;;;;;5073383;28;20454;-81
2021/08/19 10:53:49;;;;;;;1.43;1.00;;;22.50;99.90;;;;;;5076355;28;20469;-80
2021/08/19 10:56:43;;;;;;;0.70;0.70;;;22.50;99.90;;;;;;5075979;28;20443;-81
2021/08/19 10:59:30;;;;;;;0.80;0.80;;;22.50;99.90;;;;;;5075182;28;20804;-80
2021/08/19 11:02:00;;;;;;;1.47;1.00;;;22.50;99.90;;;;;;5087961;28;20443;-81
2021/08/19 11:04:43;;;;;;;0.80;0.80;;;22.50;99.90;;;;;;5095169;28;20940;-81
2021/08/19 11:07:11;;;;;;;0.70;0.70;;;22.50;99.90;;;;;;5095009;28;20440;-80
2021/08/19 11:09:40;;;;;;;0.70;0.70;;;22.40;99.90;;;;;;5094816;28;20842;-81
2021/08/19 11:12:09;;;;;;;0.60;0.60;;;22.40;99.90;;;;;;5093151;28;20468;-81
2021/08/19 11:14:39;;;;;;;0.70;0.70;;;22.40;99.90;;;;;;5095034;28;21184;-81
2021/08/19 11:17:08;;;;;;;0.90;0.90;;;22.50;99.90;;;;;;5094998;28;20551;-80
2021/08/19 11:19:36;;;;;;;1.13;0.63;;;22.50;99.90;;;;;;5094171;28;20448;-81
2021/08/19 11:22:07;;;;;;;0.60;0.60;;;22.50;99.90;;;;;;5094624;28;20818;-81
2021/08/19 11:24:35;;;;;;;1.00;0.80;;;22.50;99.90;;;;;;5094390;28;20429;-80
2021/08/19 11:27:06;;;;;;;0.60;0.60;;;22.50;99.90;;;;;;5089116;28;20442;-80
2021/08/19 11:29:37;;;;;;;1.53;1.43;;;22.60;99.90;;;;;;5055649;28;20454;-81
2021/08/19 11:32:09;;;;;;;2.03;0.93;;;22.60;99.90;;;;;;5074502;28;20489;-80
2021/08/19 11:34:39;;;;;;;1.00;0.90;;;22.70;99.90;;;;;;5076600;28;20485;-81
2021/08/19 11:37:07;;;;;;;1.43;0.77;;;22.70;99.90;;;;;;5095367;28;20444;-80
2021/08/19 11:39:35;;;;;;;0.70;0.70;;;22.70;99.90;;;;;;5093094;28;20441;-81
2021/08/19 11:42:06;;;;;;;1.20;0.70;;;22.70;99.90;;;;;;5094740;28;20558;-80
2021/08/19 11:44:34;;;;;;;0.93;0.83;;;22.80;99.90;;;;;;5075535;28;20507;-80
2021/08/19 11:47:04;;;;;;;0.60;0.60;;;22.80;99.90;;;;;;5094894;28;21045;-81
2021/08/19 11:49:34;;;;;;;1.17;0.70;;;22.80;99.90;;;;;;5093539;28;20515;-81
2021/08/19 11:52:06;;;;;;;0.70;0.70;;;22.60;99.90;;;;;;5093883;28;20453;-80
2021/08/19 11:54:43;;;;;;;0.70;0.70;;;22.60;99.90;;;;;;5093233;28;20441;-81
2021/08/19 11:57:22;;;;;;;0.80;0.80;;;22.60;99.90;;;;;;5076307;28;20529;-80
2021/08/19 11:59:58;;;;;;;1.53;0.90;;;22.60;99.90;;;;;;5092662;28;20519;-80
2021/08/19 12:02:26;;;;;;;1.20;1.10;;;22.70;99.90;;;;;;5094338;28;20913;-81
2021/08/19 12:05:08;;;;;;;1.03;0.80;;;22.80;99.90;;;;;;5093846;28;20449;-81
2021/08/19 12:07:37;;;;;;;0.70;0.70;;;22.90;99.90;;;;;;5094128;28;20859;-81
2021/08/19 12:10:07;;;;;;;0.60;0.60;;;22.90;99.90;;;;;;5093968;28;20514;-80
2021/08/19 12:12:39;;;;;;;0.80;0.80;;;22.90;99.90;;;;;;5092904;28;20509;-80
2021/08/19 12:15:09;;;;;;;1.40;0.80;;;22.90;99.90;;;;;;5093720;28;20473;-81
2021/08/19 12:17:38;;;;;;;0.70;0.70;;;23.00;99.90;;;;;;5075442;28;20469;-80
2021/08/19 12:20:12;;;;;;;1.03;0.60;;;23.00;99.90;;;;;;5093079;28;20442;-81
2021/08/19 12:22:40;;;;;;;0.93;0.90;;;23.10;99.90;;;;;;5093726;28;20476;-81
2021/08/19 12:25:27;;;;;;;1.20;0.97;;;23.10;99.90;;;;;;5075242;28;20453;-81
2021/08/19 12:28:06;;;;;;;0.80;0.80;;;23.20;99.90;;;;;;5072906;28;20484;-81
2021/08/19 12:30:34;;;;;;;0.80;0.80;;;23.20;99.90;;;;;;5073280;28;20443;-81
2021/08/19 12:33:04;;;;;;;0.97;0.90;;;23.20;99.90;;;;;;5073427;28;21019;-80
2021/08/19 12:35:33;;;;;;;0.80;0.70;;;23.20;99.90;;;;;;5073737;28;20478;-81
2021/08/19 12:38:04;;;;;;;0.93;0.80;;;23.10;99.90;;;;;;5072604;28;20477;-80
2021/08/19 12:40:34;;;;;;;0.80;0.80;;;23.00;99.90;;;;;;5095633;28;21113;-80
2021/08/19 12:43:07;;;;;;;1.13;1.03;;;22.90;99.90;;;;;;5076968;28;20470;-81
2021/08/19 12:45:36;;;;;;;3.17;0.80;;;22.90;99.90;;;;;;5075766;28;20467;-80
2021/08/19 12:48:06;;;;;;;0.90;0.70;;;23.00;99.90;;;;;;5092532;28;20454;-81
2021/08/19 12:50:38;;;;;;;0.80;0.80;;;23.00;99.90;;;;;;5093269;28;20868;-81
2021/08/19 12:53:07;;;;;;;1.17;0.83;;;23.00;99.90;;;;;;5073538;28;20519;-81
2021/08/19 12:55:35;;;;;;;0.70;0.70;;;23.00;99.90;;;;;;5094070;28;20989;-79
2021/08/19 12:58:04;;;;;;;0.60;0.60;;;23.00;99.90;;;;;;5073653;28;20446;-80
2021/08/19 13:00:34;;;;;;;1.60;0.83;;;23.00;99.90;;;;;;5074081;28;20458;-79
2021/08/19 13:03:04;;;;;;;0.90;0.90;;;22.90;99.90;;;;;;5092057;28;20697;-80
2021/08/19 13:05:36;;;;;;;0.97;0.80;;;23.00;99.90;;;;;;5092730;28;20471;-81